Osiris Therapeutics Inc (OSIR) Latest Bloomsberg Price


Mffais Ranking #1337 Overall / #20 Industry
Industry: Biotech

Number of Companies: 39 (Ranking #2425 Overall/#51 Industry)
Inflow: $ 131 (K) (Ranking #2747 Overall/#53 Industry)
Outflow: $ -772 (K)
Mffais Flow: $ -640 (K) (Ranking #1337 Overall/#20 Industry)


Receive a FREE weekly executive review of stocks moving into the top 10, taking the top industy spot or moving up within their industry. Sent directly to your Inbox every Saturday. Sign up today and get last week's review immediately sent to you.

We value and respect your privacy. Please read our Terms and Conditions which states our firm commitment to your privacy. Your email address will not be shared with a third party, nor will it be sold or used for purposes other than subscription for the weekly review.

Owner CPOR Shares Action Qty Chg Invested (K) Total Current Value (K)
Kcg Holdings Inc 2016-09-30 10,348 New Holding 10,348 $ 51 $ 51
Compagnie Lombard Odier Scma 2016-09-30 26,000 Added More 8,000 $ 40 $ 130
Teachers Advisors Inc 2016-09-30 33,650 Added More 6,037 $ 30 $ 168
Blackrock Investment Management Llc 2016-09-30 77,119 Added More 1,159 $ 5 $ 386
Parametric Portfolio Associates Llc 2016-09-30 12,618 Added More 417 $ 2 $ 63
Simplex Trading Llc 2016-09-30 219 New Holding 219 $ 1 $ 1
Northwestern Mutual Wealth Management Co 2016-09-30 75 New Holding 75 $ 0 $ 0
American International Group Inc 2016-09-30 11,461 Added More 17 $ 0 $ 57
Horizon Kinetics Llc 2016-09-30 21,000 No Change 0 $ 0 $ 105
Legal General Group Plc 2016-09-30 3,629 No Change 0 $ 0 $ 18
New York State Common Retirement Fund 2016-09-30 18,900 No Change 0 $ 0 $ 94
Fisher Asset Management Llc 2016-09-30 35,270 No Change 0 $ 0 $ 176
Globeflex Capital L P 2016-09-30 57,303 No Change 0 $ 0 $ 287
Nationwide Fund Advisors 2016-09-30 12,331 No Change 0 $ 0 $ 61
Rhumbline Advisers 2016-09-30 19,569 No Change 0 $ 0 $ 98
Baker Bros Advisors Lp 2016-09-30 499,193 No Change 0 $ 0 $ 2,500
Advisor Group Inc 2016-09-30 100 No Change 0 $ 0 $ 0
Qs Investors Llc 2016-09-30 132,027 No Change 0 $ 0 $ 661
Shinko Asset Management Co Ltd 2016-09-30 35,270 No Change 0 $ 0 $ 176
Pnc Financial Services Group Inc 2016-09-30 0 Sold All -198 $ -0 $ 0
California State Teachers Retirement System 2016-09-30 41,484 Sold Some -200 $ -1 $ 207
Strs Ohio 2016-09-30 7,900 Sold Some -300 $ -1 $ 39
Ladenburg Thalmann Financial Services Inc 2016-09-30 400 Sold Some -342 $ -1 $ 2
Sonora Investment Management Llc 2016-09-30 200 Sold Some -500 $ -2 $ 1
Emerald Acquisition Ltd 2016-09-30 63,806 Sold Some -678 $ -3 $ 319
Blackrock Inc 2016-09-30 2,340 Sold Some -680 $ -3 $ 11
Tower Research Capital Llc Trc 2016-09-30 0 Sold All -1,213 $ -6 $ 0
Cutler Group Lp 2016-09-30 300 Sold Some -1,500 $ -7 $ 1
Pdt Partners Llc 2016-09-30 17,200 Sold Some -2,300 $ -11 $ 86
Group One Trading L P 2016-09-30 12,263 Sold Some -3,063 $ -15 $ 61
Kbc Group Nv 2016-09-30 9,549 Sold Some -3,145 $ -15 $ 47
Eqis Capital Management Inc 2016-09-30 119,842 Sold Some -3,775 $ -18 $ 600
Proshare Advisors Llc 2016-09-30 23,690 Sold Some -4,390 $ -21 $ 118
Northern Trust Corp 2016-09-30 239,670 Sold Some -5,513 $ -27 $ 1,200
Acrospire Investment Management Llc 2016-09-30 2,591 Sold Some -10,985 $ -55 $ 12
Jacobs Levy Equity Management Inc 2016-09-30 0 Sold All -23,032 $ -115 $ 0
A R T Advisors Llc 2016-09-30 0 Sold All -23,049 $ -115 $ 0
Highbridge Capital Management Llc 2016-09-30 0 Sold All -34,510 $ -172 $ 0
Princeton Capital Management Inc 2016-09-30 0 Sold All -34,825 $ -174 $ 0